sensor_id;sensor_type;location;lat;lon;timestamp;P1;durP1;ratioP1;P2;durP2;ratioP2
17390;SDS011;8813;54.444;18.446;2024-03-23T00:54:15;8.23;;;6.10;;
17390;SDS011;8813;54.444;18.446;2024-03-23T00:56:43;6.57;;;6.38;;
17390;SDS011;8813;54.444;18.446;2024-03-23T00:59:12;6.32;;;6.13;;
17390;SDS011;8813;54.444;18.446;2024-03-23T01:01:39;5.20;;;5.10;;
17390;SDS011;8813;54.444;18.446;2024-03-23T01:04:05;6.00;;;5.90;;
17390;SDS011;8813;54.444;18.446;2024-03-23T01:06:35;5.50;;;5.40;;
17390;SDS011;8813;54.444;18.446;2024-03-23T01:09:02;5.10;;;5.00;;
17390;SDS011;8813;54.444;18.446;2024-03-23T01:11:29;5.82;;;5.65;;
17390;SDS011;8813;54.444;18.446;2024-03-23T01:13:55;5.53;;;5.43;;
17390;SDS011;8813;54.444;18.446;2024-03-23T01:16:22;5.35;;;5.25;;
17390;SDS011;8813;54.444;18.446;2024-03-23T01:18:49;5.50;;;5.40;;
17390;SDS011;8813;54.444;18.446;2024-03-23T01:21:16;5.20;;;5.10;;
17390;SDS011;8813;54.444;18.446;2024-03-23T01:23:42;5.60;;;5.50;;
17390;SDS011;8813;54.444;18.446;2024-03-23T01:26:10;5.05;;;4.95;;
17390;SDS011;8813;54.444;18.446;2024-03-23T01:28:36;5.00;;;4.90;;
17390;SDS011;8813;54.444;18.446;2024-03-23T01:31:04;5.55;;;5.35;;
17390;SDS011;8813;54.444;18.446;2024-03-23T01:33:30;5.40;;;5.30;;
17390;SDS011;8813;54.444;18.446;2024-03-23T01:35:56;6.70;;;6.43;;
17390;SDS011;8813;54.444;18.446;2024-03-23T01:38:22;5.30;;;5.20;;
17390;SDS011;8813;54.444;18.446;2024-03-23T01:40:49;5.05;;;4.95;;
17390;SDS011;8813;54.444;18.446;2024-03-23T01:43:17;5.45;;;5.35;;
17390;SDS011;8813;54.444;18.446;2024-03-23T01:45:44;7.93;;;7.63;;
17390;SDS011;8813;54.444;18.446;2024-03-23T01:48:12;4.90;;;4.80;;
17390;SDS011;8813;54.444;18.446;2024-03-23T01:50:39;6.35;;;6.15;;
17390;SDS011;8813;54.444;18.446;2024-03-23T01:53:05;5.10;;;5.00;;
17390;SDS011;8813;54.444;18.446;2024-03-23T01:55:32;5.70;;;5.60;;
17390;SDS011;8813;54.444;18.446;2024-03-23T01:57:58;5.15;;;5.05;;
17390;SDS011;8813;54.444;18.446;2024-03-23T02:00:27;4.82;;;4.72;;
17390;SDS011;8813;54.444;18.446;2024-03-23T02:02:53;4.60;;;4.50;;
17390;SDS011;8813;54.444;18.446;2024-03-23T02:05:20;5.03;;;4.90;;
17390;SDS011;8813;54.444;18.446;2024-03-23T02:07:46;5.10;;;5.00;;
17390;SDS011;8813;54.444;18.446;2024-03-23T02:10:13;4.90;;;4.80;;
17390;SDS011;8813;54.444;18.446;2024-03-23T02:12:39;4.55;;;4.45;;
17390;SDS011;8813;54.444;18.446;2024-03-23T02:15:06;4.40;;;4.30;;
17390;SDS011;8813;54.444;18.446;2024-03-23T02:17:35;4.20;;;4.10;;
17390;SDS011;8813;54.444;18.446;2024-03-23T02:20:02;4.30;;;4.20;;
17390;SDS011;8813;54.444;18.446;2024-03-23T02:22:35;4.32;;;4.22;;
17390;SDS011;8813;54.444;18.446;2024-03-23T02:25:04;4.13;;;4.03;;
17390;SDS011;8813;54.444;18.446;2024-03-23T02:27:31;3.90;;;3.80;;
17390;SDS011;8813;54.444;18.446;2024-03-23T02:29:58;4.10;;;4.00;;
17390;SDS011;8813;54.444;18.446;2024-03-23T02:32:24;4.35;;;4.25;;
17390;SDS011;8813;54.444;18.446;2024-03-23T02:34:51;4.20;;;4.10;;
17390;SDS011;8813;54.444;18.446;2024-03-23T02:37:16;6.13;;;5.55;;
17390;SDS011;8813;54.444;18.446;2024-03-23T02:39:43;4.10;;;4.00;;
17390;SDS011;8813;54.444;18.446;2024-03-23T02:42:12;3.80;;;3.70;;
17390;SDS011;8813;54.444;18.446;2024-03-23T02:44:39;4.10;;;4.00;;
17390;SDS011;8813;54.444;18.446;2024-03-23T02:47:05;4.10;;;4.00;;
17390;SDS011;8813;54.444;18.446;2024-03-23T02:49:33;4.05;;;3.95;;
17390;SDS011;8813;54.444;18.446;2024-03-23T02:51:58;4.43;;;4.32;;
17390;SDS011;8813;54.444;18.446;2024-03-23T02:54:25;4.00;;;3.90;;
17390;SDS011;8813;54.444;18.446;2024-03-23T02:56:51;3.80;;;3.70;;
17390;SDS011;8813;54.444;18.446;2024-03-23T02:59:20;3.28;;;3.28;;
17390;SDS011;8813;54.444;18.446;2024-03-23T03:01:46;3.70;;;3.60;;
17390;SDS011;8813;54.444;18.446;2024-03-23T03:04:12;3.70;;;3.60;;
17390;SDS011;8813;54.444;18.446;2024-03-23T03:06:38;4.00;;;3.90;;
17390;SDS011;8813;54.444;18.446;2024-03-23T03:09:06;3.70;;;3.60;;
17390;SDS011;8813;54.444;18.446;2024-03-23T03:11:32;4.10;;;4.00;;
17390;SDS011;8813;54.444;18.446;2024-03-23T03:13:59;4.30;;;4.20;;
17390;SDS011;8813;54.444;18.446;2024-03-23T03:16:27;4.28;;;4.18;;
17390;SDS011;8813;54.444;18.446;2024-03-23T03:18:54;3.80;;;3.70;;
17390;SDS011;8813;54.444;18.446;2024-03-23T03:21:19;3.60;;;3.50;;
17390;SDS011;8813;54.444;18.446;2024-03-23T03:23:47;5.28;;;4.40;;
17390;SDS011;8813;54.444;18.446;2024-03-23T03:26:15;3.70;;;3.60;;
17390;SDS011;8813;54.444;18.446;2024-03-23T03:28:42;4.40;;;4.30;;
17390;SDS011;8813;54.444;18.446;2024-03-23T03:31:08;3.72;;;3.63;;
17390;SDS011;8813;54.444;18.446;2024-03-23T03:33:37;4.45;;;4.35;;
17390;SDS011;8813;54.444;18.446;2024-03-23T03:36:03;4.30;;;4.20;;
17390;SDS011;8813;54.444;18.446;2024-03-23T03:38:30;3.95;;;3.85;;
17390;SDS011;8813;54.444;18.446;2024-03-23T03:40:56;4.43;;;4.32;;
17390;SDS011;8813;54.444;18.446;2024-03-23T03:43:24;3.80;;;3.70;;
17390;SDS011;8813;54.444;18.446;2024-03-23T03:45:52;3.80;;;3.70;;
17390;SDS011;8813;54.444;18.446;2024-03-23T03:48:19;3.80;;;3.70;;
17390;SDS011;8813;54.444;18.446;2024-03-23T03:50:47;3.60;;;3.50;;
17390;SDS011;8813;54.444;18.446;2024-03-23T03:53:14;3.90;;;3.80;;
17390;SDS011;8813;54.444;18.446;2024-03-23T03:55:39;4.40;;;4.28;;
17390;SDS011;8813;54.444;18.446;2024-03-23T03:58:07;3.90;;;3.80;;
17390;SDS011;8813;54.444;18.446;2024-03-23T04:00:34;3.85;;;3.75;;
17390;SDS011;8813;54.444;18.446;2024-03-23T04:03:00;6.28;;;5.65;;
17390;SDS011;8813;54.444;18.446;2024-03-23T04:05:27;4.07;;;3.97;;
17390;SDS011;8813;54.444;18.446;2024-03-23T04:07:55;4.20;;;4.10;;
17390;SDS011;8813;54.444;18.446;2024-03-23T04:10:21;3.60;;;3.50;;
17390;SDS011;8813;54.444;18.446;2024-03-23T04:12:52;4.05;;;3.95;;
17390;SDS011;8813;54.444;18.446;2024-03-23T04:15:20;3.63;;;3.53;;
17390;SDS011;8813;54.444;18.446;2024-03-23T04:17:46;5.13;;;4.88;;
17390;SDS011;8813;54.444;18.446;2024-03-23T04:20:13;4.57;;;4.47;;
17390;SDS011;8813;54.444;18.446;2024-03-23T04:22:42;5.47;;;5.00;;
17390;SDS011;8813;54.444;18.446;2024-03-23T04:25:11;4.85;;;4.75;;
17390;SDS011;8813;54.444;18.446;2024-03-23T04:27:37;4.20;;;4.10;;
17390;SDS011;8813;54.444;18.446;2024-03-23T04:30:04;3.70;;;3.60;;
17390;SDS011;8813;54.444;18.446;2024-03-23T04:32:36;3.90;;;3.80;;
17390;SDS011;8813;54.444;18.446;2024-03-23T04:35:03;3.95;;;3.85;;
17390;SDS011;8813;54.444;18.446;2024-03-23T04:37:31;4.00;;;3.90;;
17390;SDS011;8813;54.444;18.446;2024-03-23T04:39:59;3.92;;;3.83;;
17390;SDS011;8813;54.444;18.446;2024-03-23T04:42:27;3.70;;;3.60;;
17390;SDS011;8813;54.444;18.446;2024-03-23T04:44:54;4.10;;;4.00;;
17390;SDS011;8813;54.444;18.446;2024-03-23T04:47:22;3.70;;;3.60;;
17390;SDS011;8813;54.444;18.446;2024-03-23T04:49:51;3.90;;;3.80;;
17390;SDS011;8813;54.444;18.446;2024-03-23T04:52:18;4.10;;;4.00;;
17390;SDS011;8813;54.444;18.446;2024-03-23T04:54:45;3.90;;;3.80;;
17390;SDS011;8813;54.444;18.446;2024-03-23T04:57:11;3.90;;;3.80;;
17390;SDS011;8813;54.444;18.446;2024-03-23T04:59:39;3.78;;;3.67;;
17390;SDS011;8813;54.444;18.446;2024-03-23T05:02:05;3.90;;;3.80;;
17390;SDS011;8813;54.444;18.446;2024-03-23T05:04:35;3.70;;;3.60;;
17390;SDS011;8813;54.444;18.446;2024-03-23T05:07:02;4.10;;;4.00;;
17390;SDS011;8813;54.444;18.446;2024-03-23T05:09:29;4.50;;;4.40;;
17390;SDS011;8813;54.444;18.446;2024-03-23T05:11:55;4.57;;;4.47;;
17390;SDS011;8813;54.444;18.446;2024-03-23T05:14:22;4.05;;;3.95;;
17390;SDS011;8813;54.444;18.446;2024-03-23T05:16:50;6.82;;;6.55;;
17390;SDS011;8813;54.444;18.446;2024-03-23T05:19:17;3.90;;;3.80;;
17390;SDS011;8813;54.444;18.446;2024-03-23T05:21:43;4.20;;;4.10;;
17390;SDS011;8813;54.444;18.446;2024-03-23T05:24:11;3.88;;;3.78;;
17390;SDS011;8813;54.444;18.446;2024-03-23T05:26:37;4.07;;;3.97;;
17390;SDS011;8813;54.444;18.446;2024-03-23T05:29:04;3.70;;;3.60;;
17390;SDS011;8813;54.444;18.446;2024-03-23T05:31:32;4.00;;;3.90;;
17390;SDS011;8813;54.444;18.446;2024-03-23T05:34:00;4.20;;;4.10;;
17390;SDS011;8813;54.444;18.446;2024-03-23T05:36:26;4.00;;;3.90;;
17390;SDS011;8813;54.444;18.446;2024-03-23T05:38:55;4.18;;;4.05;;
17390;SDS011;8813;54.444;18.446;2024-03-23T05:41:21;3.63;;;3.53;;
17390;SDS011;8813;54.444;18.446;2024-03-23T05:43:49;4.65;;;4.35;;
17390;SDS011;8813;54.444;18.446;2024-03-23T05:46:15;4.65;;;4.45;;
17390;SDS011;8813;54.444;18.446;2024-03-23T05:48:43;3.22;;;3.22;;
17390;SDS011;8813;54.444;18.446;2024-03-23T05:51:10;15.88;;;4.50;;
17390;SDS011;8813;54.444;18.446;2024-03-23T05:53:38;4.65;;;4.55;;
17390;SDS011;8813;54.444;18.446;2024-03-23T05:56:04;3.90;;;3.80;;
17390;SDS011;8813;54.444;18.446;2024-03-23T05:58:32;10.82;;;5.72;;
17390;SDS011;8813;54.444;18.446;2024-03-23T06:00:58;4.22;;;4.13;;
17390;SDS011;8813;54.444;18.446;2024-03-23T06:03:26;3.95;;;3.67;;
17390;SDS011;8813;54.444;18.446;2024-03-23T06:05:52;3.40;;;3.40;;
17390;SDS011;8813;54.444;18.446;2024-03-23T06:08:22;3.55;;;3.45;;
17390;SDS011;8813;54.444;18.446;2024-03-23T06:10:49;2.80;;;2.80;;
17390;SDS011;8813;54.444;18.446;2024-03-23T06:13:16;3.28;;;3.17;;
17390;SDS011;8813;54.444;18.446;2024-03-23T06:15:43;3.20;;;3.10;;
17390;SDS011;8813;54.444;18.446;2024-03-23T06:18:11;3.72;;;3.53;;
17390;SDS011;8813;54.444;18.446;2024-03-23T06:20:38;2.90;;;2.90;;
17390;SDS011;8813;54.444;18.446;2024-03-23T06:23:05;2.80;;;2.80;;
17390;SDS011;8813;54.444;18.446;2024-03-23T06:25:33;3.28;;;3.17;;
17390;SDS011;8813;54.444;18.446;2024-03-23T06:28:01;3.35;;;3.30;;
17390;SDS011;8813;54.444;18.446;2024-03-23T06:30:28;3.20;;;3.20;;
17390;SDS011;8813;54.444;18.446;2024-03-23T06:32:57;3.72;;;3.63;;
17390;SDS011;8813;54.444;18.446;2024-03-23T06:35:24;3.00;;;3.00;;
17390;SDS011;8813;54.444;18.446;2024-03-23T06:37:50;3.00;;;3.00;;
17390;SDS011;8813;54.444;18.446;2024-03-23T06:40:16;6.53;;;3.45;;
17390;SDS011;8813;54.444;18.446;2024-03-23T06:42:45;3.13;;;3.03;;
17390;SDS011;8813;54.444;18.446;2024-03-23T06:45:11;2.95;;;2.95;;
17390;SDS011;8813;54.444;18.446;2024-03-23T06:47:38;3.03;;;3.03;;
17390;SDS011;8813;54.444;18.446;2024-03-23T06:50:05;3.22;;;3.17;;
17390;SDS011;8813;54.444;18.446;2024-03-23T06:52:31;3.88;;;3.65;;
17390;SDS011;8813;54.444;18.446;2024-03-23T06:54:58;2.60;;;2.60;;
17390;SDS011;8813;54.444;18.446;2024-03-23T06:57:24;3.10;;;3.00;;
17390;SDS011;8813;54.444;18.446;2024-03-23T06:59:53;2.88;;;2.85;;
17390;SDS011;8813;54.444;18.446;2024-03-23T07:02:19;2.85;;;2.65;;
17390;SDS011;8813;54.444;18.446;2024-03-23T07:04:46;2.92;;;2.83;;
17390;SDS011;8813;54.444;18.446;2024-03-23T07:07:12;2.78;;;2.78;;
17390;SDS011;8813;54.444;18.446;2024-03-23T07:09:39;3.65;;;3.55;;
17390;SDS011;8813;54.444;18.446;2024-03-23T07:12:05;5.03;;;3.88;;
17390;SDS011;8813;54.444;18.446;2024-03-23T07:14:33;4.72;;;2.72;;
17390;SDS011;8813;54.444;18.446;2024-03-23T07:17:00;3.50;;;3.30;;
17390;SDS011;8813;54.444;18.446;2024-03-23T07:19:27;2.70;;;2.60;;
17390;SDS011;8813;54.444;18.446;2024-03-23T07:21:53;3.47;;;3.20;;
17390;SDS011;8813;54.444;18.446;2024-03-23T07:24:20;3.78;;;3.33;;
17390;SDS011;8813;54.444;18.446;2024-03-23T07:26:46;2.20;;;2.20;;
17390;SDS011;8813;54.444;18.446;2024-03-23T07:29:13;3.72;;;3.08;;
17390;SDS011;8813;54.444;18.446;2024-03-23T07:31:39;5.40;;;2.65;;
17390;SDS011;8813;54.444;18.446;2024-03-23T07:34:08;2.50;;;2.50;;
17390;SDS011;8813;54.444;18.446;2024-03-23T07:36:33;6.72;;;2.63;;
17390;SDS011;8813;54.444;18.446;2024-03-23T07:39:00;3.10;;;2.40;;
17390;SDS011;8813;54.444;18.446;2024-03-23T07:41:26;2.10;;;2.10;;
17390;SDS011;8813;54.444;18.446;2024-03-23T07:43:53;2.60;;;2.50;;
17390;SDS011;8813;54.444;18.446;2024-03-23T07:46:20;3.28;;;3.08;;
17390;SDS011;8813;54.444;18.446;2024-03-23T07:48:47;2.20;;;2.20;;
17390;SDS011;8813;54.444;18.446;2024-03-23T07:51:17;2.90;;;2.80;;
17390;SDS011;8813;54.444;18.446;2024-03-23T07:53:44;2.78;;;2.55;;
17390;SDS011;8813;54.444;18.446;2024-03-23T07:56:11;3.25;;;3.05;;
17390;SDS011;8813;54.444;18.446;2024-03-23T07:58:40;7.53;;;3.42;;
17390;SDS011;8813;54.444;18.446;2024-03-23T08:01:07;2.30;;;2.30;;
17390;SDS011;8813;54.444;18.446;2024-03-23T08:03:36;2.17;;;2.17;;
17390;SDS011;8813;54.444;18.446;2024-03-23T08:06:09;3.55;;;3.25;;
17390;SDS011;8813;54.444;18.446;2024-03-23T08:08:38;2.13;;;2.13;;
17390;SDS011;8813;54.444;18.446;2024-03-23T08:11:04;2.33;;;2.33;;
17390;SDS011;8813;54.444;18.446;2024-03-23T08:13:31;2.40;;;2.40;;
17390;SDS011;8813;54.444;18.446;2024-03-23T08:15:58;2.03;;;2.03;;
17390;SDS011;8813;54.444;18.446;2024-03-23T08:18:25;8.07;;;3.80;;
17390;SDS011;8813;54.444;18.446;2024-03-23T08:20:57;1.60;;;1.60;;
17390;SDS011;8813;54.444;18.446;2024-03-23T08:23:24;4.40;;;1.98;;
17390;SDS011;8813;54.444;18.446;2024-03-23T08:25:52;2.65;;;2.53;;
17390;SDS011;8813;54.444;18.446;2024-03-23T08:28:19;1.80;;;1.80;;
17390;SDS011;8813;54.444;18.446;2024-03-23T08:30:45;1.83;;;1.80;;
17390;SDS011;8813;54.444;18.446;2024-03-23T08:33:12;3.10;;;2.22;;
17390;SDS011;8813;54.444;18.446;2024-03-23T08:35:38;1.70;;;1.70;;
17390;SDS011;8813;54.444;18.446;2024-03-23T08:38:05;4.38;;;4.28;;
17390;SDS011;8813;54.444;18.446;2024-03-23T08:40:31;1.80;;;1.80;;
17390;SDS011;8813;54.444;18.446;2024-03-23T08:42:59;5.72;;;2.83;;
17390;SDS011;8813;54.444;18.446;2024-03-23T08:45:25;1.60;;;1.60;;
17390;SDS011;8813;54.444;18.446;2024-03-23T08:47:52;3.92;;;2.35;;
17390;SDS011;8813;54.444;18.446;2024-03-23T08:50:18;1.70;;;1.70;;
17390;SDS011;8813;54.444;18.446;2024-03-23T08:52:47;1.90;;;1.90;;
17390;SDS011;8813;54.444;18.446;2024-03-23T08:55:13;1.50;;;1.50;;
17390;SDS011;8813;54.444;18.446;2024-03-23T08:57:39;1.40;;;1.40;;
17390;SDS011;8813;54.444;18.446;2024-03-23T09:00:08;1.40;;;1.40;;
17390;SDS011;8813;54.444;18.446;2024-03-23T09:02:36;1.85;;;1.85;;
17390;SDS011;8813;54.444;18.446;2024-03-23T09:05:02;1.35;;;1.35;;
17390;SDS011;8813;54.444;18.446;2024-03-23T09:07:30;1.42;;;1.42;;
17390;SDS011;8813;54.444;18.446;2024-03-23T09:09:56;2.60;;;2.05;;
17390;SDS011;8813;54.444;18.446;2024-03-23T09:12:23;2.90;;;2.70;;
17390;SDS011;8813;54.444;18.446;2024-03-23T09:14:51;1.60;;;1.60;;
17390;SDS011;8813;54.444;18.446;2024-03-23T09:17:20;1.75;;;1.75;;
17390;SDS011;8813;54.444;18.446;2024-03-23T09:19:52;2.10;;;2.00;;
17390;SDS011;8813;54.444;18.446;2024-03-23T09:22:19;1.60;;;1.60;;
17390;SDS011;8813;54.444;18.446;2024-03-23T09:24:45;1.70;;;1.70;;
17390;SDS011;8813;54.444;18.446;2024-03-23T09:27:12;1.92;;;1.92;;
17390;SDS011;8813;54.444;18.446;2024-03-23T09:29:38;1.80;;;1.80;;
17390;SDS011;8813;54.444;18.446;2024-03-23T09:32:05;3.78;;;2.10;;
17390;SDS011;8813;54.444;18.446;2024-03-23T09:34:33;1.92;;;1.92;;
17390;SDS011;8813;54.444;18.446;2024-03-23T09:37:00;2.05;;;1.95;;
17390;SDS011;8813;54.444;18.446;2024-03-23T09:39:27;1.70;;;1.70;;
17390;SDS011;8813;54.444;18.446;2024-03-23T09:41:56;1.83;;;1.75;;
17390;SDS011;8813;54.444;18.446;2024-03-23T09:44:22;2.47;;;2.38;;
17390;SDS011;8813;54.444;18.446;2024-03-23T09:46:51;1.48;;;1.48;;
17390;SDS011;8813;54.444;18.446;2024-03-23T09:49:17;1.30;;;1.30;;
17390;SDS011;8813;54.444;18.446;2024-03-23T09:51:45;1.80;;;1.80;;
17390;SDS011;8813;54.444;18.446;2024-03-23T09:54:11;1.50;;;1.50;;
17390;SDS011;8813;54.444;18.446;2024-03-23T09:56:38;2.83;;;2.72;;
17390;SDS011;8813;54.444;18.446;2024-03-23T09:59:04;1.98;;;1.98;;
17390;SDS011;8813;54.444;18.446;2024-03-23T10:01:31;1.30;;;1.30;;
17390;SDS011;8813;54.444;18.446;2024-03-23T10:03:57;1.73;;;1.73;;
17390;SDS011;8813;54.444;18.446;2024-03-23T10:06:25;1.45;;;1.45;;
17390;SDS011;8813;54.444;18.446;2024-03-23T10:08:53;1.20;;;1.20;;
17390;SDS011;8813;54.444;18.446;2024-03-23T10:11:20;1.27;;;1.27;;
17390;SDS011;8813;54.444;18.446;2024-03-23T10:13:47;1.20;;;1.20;;
17390;SDS011;8813;54.444;18.446;2024-03-23T10:16:21;1.40;;;1.30;;
17390;SDS011;8813;54.444;18.446;2024-03-23T10:18:47;2.38;;;2.25;;
17390;SDS011;8813;54.444;18.446;2024-03-23T10:21:14;1.38;;;1.38;;
17390;SDS011;8813;54.444;18.446;2024-03-23T10:23:41;1.48;;;1.48;;
17390;SDS011;8813;54.444;18.446;2024-03-23T10:26:22;3.40;;;2.30;;
17390;SDS011;8813;54.444;18.446;2024-03-23T10:28:52;1.00;;;1.00;;
17390;SDS011;8813;54.444;18.446;2024-03-23T10:31:20;1.25;;;1.25;;
17390;SDS011;8813;54.444;18.446;2024-03-23T10:33:46;1.00;;;1.00;;
17390;SDS011;8813;54.444;18.446;2024-03-23T10:36:13;2.08;;;2.08;;
17390;SDS011;8813;54.444;18.446;2024-03-23T10:38:39;1.10;;;1.10;;
17390;SDS011;8813;54.444;18.446;2024-03-23T10:41:07;1.10;;;1.10;;
17390;SDS011;8813;54.444;18.446;2024-03-23T10:43:36;1.00;;;1.00;;
17390;SDS011;8813;54.444;18.446;2024-03-23T10:46:04;1.42;;;1.42;;
17390;SDS011;8813;54.444;18.446;2024-03-23T10:48:34;1.00;;;1.00;;
17390;SDS011;8813;54.444;18.446;2024-03-23T10:55:04;1.20;;;1.20;;
17390;SDS011;8813;54.444;18.446;2024-03-23T10:57:34;1.85;;;1.75;;
17390;SDS011;8813;54.444;18.446;2024-03-23T11:00:03;2.60;;;2.53;;
17390;SDS011;8813;54.444;18.446;2024-03-23T11:02:31;6.85;;;4.40;;
17390;SDS011;8813;54.444;18.446;2024-03-23T11:04:57;13.95;;;2.03;;
17390;SDS011;8813;54.444;18.446;2024-03-23T11:07:30;12.30;;;1.77;;
17390;SDS011;8813;54.444;18.446;2024-03-23T11:09:57;1.30;;;1.30;;
17390;SDS011;8813;54.444;18.446;2024-03-23T11:12:29;1.35;;;1.35;;
17390;SDS011;8813;54.444;18.446;2024-03-23T11:14:58;2.15;;;1.45;;
17390;SDS011;8813;54.444;18.446;2024-03-23T11:17:27;1.35;;;1.27;;
17390;SDS011;8813;54.444;18.446;2024-03-23T11:19:54;1.20;;;1.20;;
17390;SDS011;8813;54.444;18.446;2024-03-23T11:22:38;1.20;;;1.20;;
17390;SDS011;8813;54.444;18.446;2024-03-23T11:25:12;1.10;;;1.10;;
17390;SDS011;8813;54.444;18.446;2024-03-23T11:27:44;1.30;;;1.30;;
17390;SDS011;8813;54.444;18.446;2024-03-23T11:30:11;1.00;;;1.00;;
17390;SDS011;8813;54.444;18.446;2024-03-23T11:32:39;1.00;;;1.00;;
17390;SDS011;8813;54.444;18.446;2024-03-23T11:35:06;1.10;;;1.10;;
17390;SDS011;8813;54.444;18.446;2024-03-23T11:37:35;1.10;;;1.10;;
17390;SDS011;8813;54.444;18.446;2024-03-23T11:40:17;1.00;;;1.00;;
17390;SDS011;8813;54.444;18.446;2024-03-23T11:42:45;1.00;;;1.00;;
17390;SDS011;8813;54.444;18.446;2024-03-23T11:45:12;2.90;;;1.20;;
17390;SDS011;8813;54.444;18.446;2024-03-23T11:47:41;0.90;;;0.90;;
17390;SDS011;8813;54.444;18.446;2024-03-23T11:50:07;1.00;;;1.00;;
17390;SDS011;8813;54.444;18.446;2024-03-23T11:52:35;0.90;;;0.90;;
17390;SDS011;8813;54.444;18.446;2024-03-23T11:55:05;1.00;;;1.00;;
17390;SDS011;8813;54.444;18.446;2024-03-23T11:57:33;1.20;;;1.20;;
17390;SDS011;8813;54.444;18.446;2024-03-23T12:00:01;1.27;;;1.27;;
17390;SDS011;8813;54.444;18.446;2024-03-23T12:02:28;1.00;;;1.00;;
17390;SDS011;8813;54.444;18.446;2024-03-23T12:04:54;1.02;;;1.02;;
17390;SDS011;8813;54.444;18.446;2024-03-23T12:07:21;1.10;;;1.10;;
17390;SDS011;8813;54.444;18.446;2024-03-23T12:09:47;1.00;;;1.00;;
17390;SDS011;8813;54.444;18.446;2024-03-23T12:12:29;1.00;;;1.00;;
17390;SDS011;8813;54.444;18.446;2024-03-23T12:15:04;1.00;;;1.00;;
17390;SDS011;8813;54.444;18.446;2024-03-23T12:17:31;1.00;;;1.00;;
17390;SDS011;8813;54.444;18.446;2024-03-23T12:20:00;1.02;;;1.02;;
17390;SDS011;8813;54.444;18.446;2024-03-23T12:22:28;1.00;;;1.00;;
17390;SDS011;8813;54.444;18.446;2024-03-23T12:24:55;1.05;;;1.05;;
17390;SDS011;8813;54.444;18.446;2024-03-23T12:27:22;2.80;;;1.30;;
17390;SDS011;8813;54.444;18.446;2024-03-23T12:29:49;0.95;;;0.95;;
17390;SDS011;8813;54.444;18.446;2024-03-23T12:32:17;1.00;;;1.00;;
17390;SDS011;8813;54.444;18.446;2024-03-23T12:34:46;1.00;;;1.00;;
17390;SDS011;8813;54.444;18.446;2024-03-23T12:37:12;1.20;;;1.20;;
17390;SDS011;8813;54.444;18.446;2024-03-23T12:39:39;0.90;;;0.90;;
17390;SDS011;8813;54.444;18.446;2024-03-23T12:42:05;1.05;;;1.05;;
17390;SDS011;8813;54.444;18.446;2024-03-23T12:44:32;0.90;;;0.90;;
17390;SDS011;8813;54.444;18.446;2024-03-23T12:46:58;0.90;;;0.90;;
17390;SDS011;8813;54.444;18.446;2024-03-23T12:49:27;0.90;;;0.90;;
17390;SDS011;8813;54.444;18.446;2024-03-23T12:51:53;3.10;;;1.45;;
17390;SDS011;8813;54.444;18.446;2024-03-23T12:54:21;1.00;;;1.00;;
17390;SDS011;8813;54.444;18.446;2024-03-23T12:56:48;1.48;;;1.40;;
17390;SDS011;8813;54.444;18.446;2024-03-23T12:59:17;0.90;;;0.90;;
17390;SDS011;8813;54.444;18.446;2024-03-23T13:01:43;0.90;;;0.90;;
17390;SDS011;8813;54.444;18.446;2024-03-23T13:04:10;0.80;;;0.80;;
17390;SDS011;8813;54.444;18.446;2024-03-23T13:06:37;0.90;;;0.90;;
17390;SDS011;8813;54.444;18.446;2024-03-23T13:09:05;1.00;;;1.00;;
17390;SDS011;8813;54.444;18.446;2024-03-23T13:11:31;1.10;;;1.10;;
17390;SDS011;8813;54.444;18.446;2024-03-23T13:13:58;1.00;;;1.00;;
17390;SDS011;8813;54.444;18.446;2024-03-23T13:16:24;1.00;;;1.00;;
17390;SDS011;8813;54.444;18.446;2024-03-23T13:18:51;1.00;;;1.00;;
17390;SDS011;8813;54.444;18.446;2024-03-23T13:21:17;1.85;;;1.60;;
17390;SDS011;8813;54.444;18.446;2024-03-23T13:23:47;1.77;;;1.77;;
17390;SDS011;8813;54.444;18.446;2024-03-23T13:26:15;1.00;;;1.00;;
17390;SDS011;8813;54.444;18.446;2024-03-23T13:28:42;1.00;;;1.00;;
17390;SDS011;8813;54.444;18.446;2024-03-23T13:31:08;1.52;;;1.42;;
17390;SDS011;8813;54.444;18.446;2024-03-23T13:33:35;0.93;;;0.93;;
17390;SDS011;8813;54.444;18.446;2024-03-23T13:36:01;1.92;;;1.88;;
17390;SDS011;8813;54.444;18.446;2024-03-23T13:38:28;1.10;;;1.10;;
17390;SDS011;8813;54.444;18.446;2024-03-23T13:40:56;3.35;;;3.05;;
17390;SDS011;8813;54.444;18.446;2024-03-23T13:43:24;1.77;;;1.75;;
17390;SDS011;8813;54.444;18.446;2024-03-23T13:45:52;1.40;;;1.40;;
17390;SDS011;8813;54.444;18.446;2024-03-23T13:48:20;1.10;;;1.10;;
17390;SDS011;8813;54.444;18.446;2024-03-23T13:50:46;1.20;;;1.20;;
17390;SDS011;8813;54.444;18.446;2024-03-23T13:53:14;1.20;;;1.20;;
17390;SDS011;8813;54.444;18.446;2024-03-23T13:55:45;1.73;;;1.73;;
17390;SDS011;8813;54.444;18.446;2024-03-23T13:58:15;1.20;;;1.20;;
17390;SDS011;8813;54.444;18.446;2024-03-23T14:00:45;1.40;;;1.40;;
17390;SDS011;8813;54.444;18.446;2024-03-23T14:03:13;1.27;;;1.27;;
17390;SDS011;8813;54.444;18.446;2024-03-23T14:05:42;3.85;;;3.65;;
17390;SDS011;8813;54.444;18.446;2024-03-23T14:08:09;1.30;;;1.30;;
17390;SDS011;8813;54.444;18.446;2024-03-23T14:10:36;1.40;;;1.40;;
17390;SDS011;8813;54.444;18.446;2024-03-23T14:13:06;2.72;;;2.20;;
17390;SDS011;8813;54.444;18.446;2024-03-23T14:15:34;1.25;;;1.25;;
17390;SDS011;8813;54.444;18.446;2024-03-23T14:18:02;1.33;;;1.33;;
17390;SDS011;8813;54.444;18.446;2024-03-23T14:20:28;1.20;;;1.20;;
17390;SDS011;8813;54.444;18.446;2024-03-23T14:22:55;1.20;;;1.20;;
17390;SDS011;8813;54.444;18.446;2024-03-23T14:25:21;1.30;;;1.30;;
17390;SDS011;8813;54.444;18.446;2024-03-23T14:27:52;1.30;;;1.30;;
17390;SDS011;8813;54.444;18.446;2024-03-23T14:30:18;1.20;;;1.20;;
17390;SDS011;8813;54.444;18.446;2024-03-23T14:32:46;1.42;;;1.42;;
17390;SDS011;8813;54.444;18.446;2024-03-23T14:35:13;1.20;;;1.20;;
17390;SDS011;8813;54.444;18.446;2024-03-23T14:37:40;1.20;;;1.20;;
17390;SDS011;8813;54.444;18.446;2024-03-23T14:40:07;1.20;;;1.20;;
17390;SDS011;8813;54.444;18.446;2024-03-23T14:42:38;1.20;;;1.20;;
17390;SDS011;8813;54.444;18.446;2024-03-23T14:45:04;1.30;;;1.30;;
17390;SDS011;8813;54.444;18.446;2024-03-23T14:47:32;1.25;;;1.25;;
17390;SDS011;8813;54.444;18.446;2024-03-23T14:49:59;1.20;;;1.20;;
17390;SDS011;8813;54.444;18.446;2024-03-23T14:52:27;1.20;;;1.20;;
17390;SDS011;8813;54.444;18.446;2024-03-23T14:54:53;1.30;;;1.30;;
17390;SDS011;8813;54.444;18.446;2024-03-23T14:57:23;1.10;;;1.10;;
17390;SDS011;8813;54.444;18.446;2024-03-23T14:59:49;1.30;;;1.30;;
17390;SDS011;8813;54.444;18.446;2024-03-23T15:02:18;1.23;;;1.23;;
17390;SDS011;8813;54.444;18.446;2024-03-23T15:04:44;1.30;;;1.30;;
17390;SDS011;8813;54.444;18.446;2024-03-23T15:07:13;1.20;;;1.20;;
17390;SDS011;8813;54.444;18.446;2024-03-23T15:09:39;1.20;;;1.20;;
17390;SDS011;8813;54.444;18.446;2024-03-23T15:12:06;1.20;;;1.20;;
17390;SDS011;8813;54.444;18.446;2024-03-23T15:14:32;1.30;;;1.30;;
17390;SDS011;8813;54.444;18.446;2024-03-23T15:16:59;2.95;;;2.85;;
17390;SDS011;8813;54.444;18.446;2024-03-23T15:19:28;1.20;;;1.20;;
17390;SDS011;8813;54.444;18.446;2024-03-23T15:21:55;1.25;;;1.25;;
17390;SDS011;8813;54.444;18.446;2024-03-23T15:24:23;1.25;;;1.25;;
17390;SDS011;8813;54.444;18.446;2024-03-23T15:26:51;1.30;;;1.30;;
17390;SDS011;8813;54.444;18.446;2024-03-23T15:29:17;1.45;;;1.45;;
17390;SDS011;8813;54.444;18.446;2024-03-23T15:31:44;1.58;;;1.58;;
17390;SDS011;8813;54.444;18.446;2024-03-23T15:34:11;1.10;;;1.10;;
17390;SDS011;8813;54.444;18.446;2024-03-23T15:36:38;1.10;;;1.10;;
17390;SDS011;8813;54.444;18.446;2024-03-23T15:39:04;1.20;;;1.20;;
17390;SDS011;8813;54.444;18.446;2024-03-23T15:41:33;1.10;;;1.10;;
17390;SDS011;8813;54.444;18.446;2024-03-23T15:44:00;1.10;;;1.10;;
17390;SDS011;8813;54.444;18.446;2024-03-23T15:46:28;1.10;;;1.10;;